sensor_id;sensor_type;location;lat;lon;timestamp;pressure;altitude;pressure_sealevel;temperature;humidity
84055;BME280;74141;51.504;7.122;2024-02-23T00:00:29;98208.56;;;5.89;91.19
84055;BME280;74141;51.504;7.122;2024-02-23T00:02:54;98198.50;;;5.83;91.15
84055;BME280;74141;51.504;7.122;2024-02-23T00:05:21;98228.31;;;5.79;92.05
84055;BME280;74141;51.504;7.122;2024-02-23T00:07:47;98232.22;;;5.72;92.16
84055;BME280;74141;51.504;7.122;2024-02-23T00:10:12;98244.63;;;5.69;91.12
84055;BME280;74141;51.504;7.122;2024-02-23T00:12:38;98244.91;;;5.64;90.71
84055;BME280;74141;51.504;7.122;2024-02-23T00:15:03;98240.63;;;5.63;90.60
84055;BME280;74141;51.504;7.122;2024-02-23T00:17:29;98256.28;;;5.63;91.96
84055;BME280;74141;51.504;7.122;2024-02-23T00:19:54;98259.81;;;5.62;91.10
84055;BME280;74141;51.504;7.122;2024-02-23T00:22:20;98266.72;;;5.63;90.87
84055;BME280;74141;51.504;7.122;2024-02-23T00:24:45;98274.38;;;5.66;90.65
84055;BME280;74141;51.504;7.122;2024-02-23T00:27:10;98278.84;;;5.64;90.13
84055;BME280;74141;51.504;7.122;2024-02-23T00:29:36;98278.09;;;5.62;89.28
84055;BME280;74141;51.504;7.122;2024-02-23T00:32:02;98298.16;;;5.62;89.89
84055;BME280;74141;51.504;7.122;2024-02-23T00:34:27;98306.09;;;5.60;89.90
84055;BME280;74141;51.504;7.122;2024-02-23T00:36:55;98292.16;;;5.60;89.72
84055;BME280;74141;51.504;7.122;2024-02-23T00:39:20;98299.16;;;5.59;89.36
84055;BME280;74141;51.504;7.122;2024-02-23T00:41:45;98302.88;;;5.55;90.31
84055;BME280;74141;51.504;7.122;2024-02-23T00:44:11;98300.88;;;5.60;89.70
84055;BME280;74141;51.504;7.122;2024-02-23T00:46:37;98306.16;;;5.59;89.92
84055;BME280;74141;51.504;7.122;2024-02-23T00:49:02;98330.16;;;5.65;89.98
84055;BME280;74141;51.504;7.122;2024-02-23T00:51:27;98314.38;;;5.67;89.24
84055;BME280;74141;51.504;7.122;2024-02-23T00:53:53;98334.56;;;5.79;88.68
84055;BME280;74141;51.504;7.122;2024-02-23T00:56:18;98342.25;;;5.82;87.90
84055;BME280;74141;51.504;7.122;2024-02-23T00:58:43;98337.03;;;5.82;87.00
84055;BME280;74141;51.504;7.122;2024-02-23T01:01:09;98326.81;;;5.77;87.60
84055;BME280;74141;51.504;7.122;2024-02-23T01:03:34;98329.97;;;5.68;86.52
84055;BME280;74141;51.504;7.122;2024-02-23T01:05:59;98339.59;;;5.68;87.04
84055;BME280;74141;51.504;7.122;2024-02-23T01:08:24;98335.97;;;5.70;86.65
84055;BME280;74141;51.504;7.122;2024-02-23T01:10:50;98351.53;;;5.72;86.12
84055;BME280;74141;51.504;7.122;2024-02-23T01:13:15;98340.75;;;5.78;84.75
84055;BME280;74141;51.504;7.122;2024-02-23T01:15:41;98356.00;;;5.70;86.16
84055;BME280;74141;51.504;7.122;2024-02-23T01:18:06;98351.81;;;5.67;85.70
84055;BME280;74141;51.504;7.122;2024-02-23T01:20:33;98357.41;;;5.75;85.86
84055;BME280;74141;51.504;7.122;2024-02-23T01:22:58;98364.00;;;5.67;86.21
84055;BME280;74141;51.504;7.122;2024-02-23T01:25:23;98366.63;;;5.67;85.59
84055;BME280;74141;51.504;7.122;2024-02-23T01:27:48;98371.47;;;5.59;86.54
84055;BME280;74141;51.504;7.122;2024-02-23T01:30:14;98372.47;;;5.56;86.81
84055;BME280;74141;51.504;7.122;2024-02-23T01:32:39;98384.44;;;5.60;86.26
84055;BME280;74141;51.504;7.122;2024-02-23T01:35:05;98372.09;;;5.62;86.41
84055;BME280;74141;51.504;7.122;2024-02-23T01:37:31;98381.13;;;5.72;85.87
84055;BME280;74141;51.504;7.122;2024-02-23T01:39:57;98386.59;;;5.83;85.05
84055;BME280;74141;51.504;7.122;2024-02-23T01:42:23;98390.78;;;5.86;85.38
84055;BME280;74141;51.504;7.122;2024-02-23T01:44:49;98399.91;;;5.94;84.19
84055;BME280;74141;51.504;7.122;2024-02-23T01:47:15;98401.75;;;5.92;84.79
84055;BME280;74141;51.504;7.122;2024-02-23T01:49:40;98393.13;;;5.90;85.12
84055;BME280;74141;51.504;7.122;2024-02-23T01:52:05;98404.53;;;5.89;85.19
84055;BME280;74141;51.504;7.122;2024-02-23T01:54:32;98417.34;;;5.94;85.20
84055;BME280;74141;51.504;7.122;2024-02-23T01:56:58;98403.59;;;5.90;84.73
84055;BME280;74141;51.504;7.122;2024-02-23T01:59:23;98401.91;;;5.89;85.23
84055;BME280;74141;51.504;7.122;2024-02-23T02:01:50;98403.59;;;5.90;84.97
84055;BME280;74141;51.504;7.122;2024-02-23T02:04:15;98401.41;;;5.83;85.70
84055;BME280;74141;51.504;7.122;2024-02-23T02:06:41;98408.56;;;5.79;85.21
84055;BME280;74141;51.504;7.122;2024-02-23T02:09:12;98407.97;;;5.74;86.01
84055;BME280;74141;51.504;7.122;2024-02-23T02:11:47;98412.72;;;5.83;85.17
84055;BME280;74141;51.504;7.122;2024-02-23T02:14:13;98410.69;;;5.88;84.11
84055;BME280;74141;51.504;7.122;2024-02-23T02:16:39;98415.16;;;5.86;85.38
84055;BME280;74141;51.504;7.122;2024-02-23T02:19:14;98407.56;;;5.97;84.31
84055;BME280;74141;51.504;7.122;2024-02-23T02:21:40;98420.81;;;5.94;84.44
84055;BME280;74141;51.504;7.122;2024-02-23T02:24:12;98421.63;;;5.95;84.55
84055;BME280;74141;51.504;7.122;2024-02-23T02:26:37;98420.81;;;5.94;83.69
84055;BME280;74141;51.504;7.122;2024-02-23T02:29:13;98420.03;;;5.92;83.98
84055;BME280;74141;51.504;7.122;2024-02-23T02:31:39;98422.47;;;5.95;83.15
84055;BME280;74141;51.504;7.122;2024-02-23T02:34:13;98413.44;;;6.01;82.55
84055;BME280;74141;51.504;7.122;2024-02-23T02:36:39;98417.69;;;6.17;80.23
84055;BME280;74141;51.504;7.122;2024-02-23T02:39:11;98435.63;;;6.23;80.31
84055;BME280;74141;51.504;7.122;2024-02-23T02:41:36;98442.72;;;6.21;81.51
84055;BME280;74141;51.504;7.122;2024-02-23T02:44:01;98434.69;;;6.24;81.27
84055;BME280;74141;51.504;7.122;2024-02-23T02:46:47;98456.44;;;6.25;81.30
84055;BME280;74141;51.504;7.122;2024-02-23T02:49:12;98462.63;;;6.24;81.84
84055;BME280;74141;51.504;7.122;2024-02-23T02:51:37;98458.56;;;6.18;81.73
84055;BME280;74141;51.504;7.122;2024-02-23T02:54:14;98468.56;;;6.12;81.85
84055;BME280;74141;51.504;7.122;2024-02-23T02:56:43;98471.00;;;5.99;82.73
84055;BME280;74141;51.504;7.122;2024-02-23T02:59:14;98479.28;;;5.92;84.03
84055;BME280;74141;51.504;7.122;2024-02-23T03:01:39;98477.53;;;5.92;82.42
84055;BME280;74141;51.504;7.122;2024-02-23T03:04:05;98457.91;;;5.85;82.25
84055;BME280;74141;51.504;7.122;2024-02-23T03:06:30;98480.91;;;5.94;81.98
84055;BME280;74141;51.504;7.122;2024-02-23T03:08:55;98483.69;;;5.91;82.33
84055;BME280;74141;51.504;7.122;2024-02-23T03:11:21;98487.22;;;5.90;82.41
84055;BME280;74141;51.504;7.122;2024-02-23T03:13:46;98484.13;;;5.84;82.43
84055;BME280;74141;51.504;7.122;2024-02-23T03:16:18;98493.84;;;5.80;82.41
84055;BME280;74141;51.504;7.122;2024-02-23T03:18:43;98486.59;;;5.70;83.29
84055;BME280;74141;51.504;7.122;2024-02-23T03:21:09;98499.75;;;5.68;83.14
84055;BME280;74141;51.504;7.122;2024-02-23T03:23:37;98492.09;;;5.65;82.36
84055;BME280;74141;51.504;7.122;2024-02-23T03:26:03;98490.91;;;5.55;83.00
84055;BME280;74141;51.504;7.122;2024-02-23T03:28:28;98500.34;;;5.58;82.70
84055;BME280;74141;51.504;7.122;2024-02-23T03:30:54;98488.63;;;5.49;83.16
84055;BME280;74141;51.504;7.122;2024-02-23T03:33:19;98479.84;;;5.50;83.36
84055;BME280;74141;51.504;7.122;2024-02-23T03:35:44;98479.38;;;5.44;82.92
84055;BME280;74141;51.504;7.122;2024-02-23T03:38:09;98497.88;;;5.55;83.42
84055;BME280;74141;51.504;7.122;2024-02-23T03:40:35;98499.50;;;5.57;82.51
84055;BME280;74141;51.504;7.122;2024-02-23T03:43:01;98503.56;;;5.63;82.50
84055;BME280;74141;51.504;7.122;2024-02-23T03:45:27;98511.13;;;5.67;82.98
84055;BME280;74141;51.504;7.122;2024-02-23T03:47:52;98505.50;;;5.75;81.77
84055;BME280;74141;51.504;7.122;2024-02-23T03:50:17;98486.88;;;5.81;81.47
84055;BME280;74141;51.504;7.122;2024-02-23T03:52:43;98510.00;;;5.88;81.28
84055;BME280;74141;51.504;7.122;2024-02-23T03:55:08;98511.66;;;5.89;81.59
84055;BME280;74141;51.504;7.122;2024-02-23T03:57:34;98510.91;;;5.87;81.38
84055;BME280;74141;51.504;7.122;2024-02-23T03:59:59;98514.88;;;5.94;81.36
84055;BME280;74141;51.504;7.122;2024-02-23T04:02:24;98518.22;;;5.96;80.55
84055;BME280;74141;51.504;7.122;2024-02-23T04:04:49;98495.66;;;5.95;80.94
84055;BME280;74141;51.504;7.122;2024-02-23T04:07:15;98515.44;;;5.99;80.55
84055;BME280;74141;51.504;7.122;2024-02-23T04:09:40;98512.00;;;5.99;80.09
84055;BME280;74141;51.504;7.122;2024-02-23T04:12:06;98526.66;;;6.01;80.91
84055;BME280;74141;51.504;7.122;2024-02-23T04:14:32;98523.09;;;6.02;80.62
84055;BME280;74141;51.504;7.122;2024-02-23T04:17:01;98521.44;;;6.01;80.48
84055;BME280;74141;51.504;7.122;2024-02-23T04:19:27;98520.50;;;6.02;80.99
84055;BME280;74141;51.504;7.122;2024-02-23T04:21:52;98519.59;;;6.03;81.02
84055;BME280;74141;51.504;7.122;2024-02-23T04:24:17;98530.69;;;6.07;80.16
84055;BME280;74141;51.504;7.122;2024-02-23T04:26:43;98531.53;;;6.07;79.90
84055;BME280;74141;51.504;7.122;2024-02-23T04:29:08;98548.34;;;6.03;80.68
84055;BME280;74141;51.504;7.122;2024-02-23T04:31:36;98546.38;;;6.07;80.06
84055;BME280;74141;51.504;7.122;2024-02-23T04:34:01;98542.66;;;6.11;79.46
84055;BME280;74141;51.504;7.122;2024-02-23T04:36:26;98547.22;;;6.07;79.83
84055;BME280;74141;51.504;7.122;2024-02-23T04:38:52;98545.94;;;6.14;78.75
84055;BME280;74141;51.504;7.122;2024-02-23T04:41:19;98549.50;;;6.13;79.37
84055;BME280;74141;51.504;7.122;2024-02-23T04:43:45;98559.28;;;6.10;79.13
84055;BME280;74141;51.504;7.122;2024-02-23T04:46:11;98553.97;;;6.11;79.49
84055;BME280;74141;51.504;7.122;2024-02-23T04:48:37;98554.72;;;6.13;78.72
84055;BME280;74141;51.504;7.122;2024-02-23T04:51:03;98554.81;;;6.12;79.31
84055;BME280;74141;51.504;7.122;2024-02-23T04:53:28;98553.78;;;6.14;78.31
84055;BME280;74141;51.504;7.122;2024-02-23T04:55:53;98552.13;;;6.13;78.57
84055;BME280;74141;51.504;7.122;2024-02-23T04:58:19;98566.09;;;6.12;78.23
84055;BME280;74141;51.504;7.122;2024-02-23T05:00:45;98573.94;;;6.12;78.32
84055;BME280;74141;51.504;7.122;2024-02-23T05:03:11;98569.47;;;6.14;78.27
84055;BME280;74141;51.504;7.122;2024-02-23T05:05:36;98565.28;;;6.12;78.19
84055;BME280;74141;51.504;7.122;2024-02-23T05:08:02;98569.72;;;6.10;77.99
84055;BME280;74141;51.504;7.122;2024-02-23T05:10:27;98569.81;;;6.08;78.36
84055;BME280;74141;51.504;7.122;2024-02-23T05:12:53;98560.47;;;6.04;78.03
84055;BME280;74141;51.504;7.122;2024-02-23T05:15:18;98570.66;;;6.09;78.08
84055;BME280;74141;51.504;7.122;2024-02-23T05:17:44;98576.81;;;6.08;78.17
84055;BME280;74141;51.504;7.122;2024-02-23T05:20:10;98580.09;;;6.11;78.41
84055;BME280;74141;51.504;7.122;2024-02-23T05:22:36;98572.94;;;6.15;77.83
84055;BME280;74141;51.504;7.122;2024-02-23T05:25:01;98575.31;;;6.19;77.99
84055;BME280;74141;51.504;7.122;2024-02-23T05:27:27;98579.59;;;6.20;77.67
84055;BME280;74141;51.504;7.122;2024-02-23T05:29:53;98577.16;;;6.17;77.88
84055;BME280;74141;51.504;7.122;2024-02-23T05:32:18;98577.91;;;6.19;77.84
84055;BME280;74141;51.504;7.122;2024-02-23T05:34:44;98587.09;;;6.27;77.45
84055;BME280;74141;51.504;7.122;2024-02-23T05:37:10;98583.78;;;6.23;78.14
84055;BME280;74141;51.504;7.122;2024-02-23T05:39:35;98572.53;;;6.22;77.88
84055;BME280;74141;51.504;7.122;2024-02-23T05:42:00;98574.53;;;6.17;77.87
84055;BME280;74141;51.504;7.122;2024-02-23T05:44:25;98563.91;;;6.20;77.65
84055;BME280;74141;51.504;7.122;2024-02-23T05:46:51;98574.88;;;6.27;77.18
84055;BME280;74141;51.504;7.122;2024-02-23T05:49:16;98568.88;;;6.25;77.71
84055;BME280;74141;51.504;7.122;2024-02-23T05:51:42;98574.19;;;6.23;77.24
84055;BME280;74141;51.504;7.122;2024-02-23T05:54:07;98566.09;;;6.28;77.30
84055;BME280;74141;51.504;7.122;2024-02-23T05:56:33;98568.97;;;6.23;76.87
84055;BME280;74141;51.504;7.122;2024-02-23T05:58:58;98557.00;;;6.19;77.66
84055;BME280;74141;51.504;7.122;2024-02-23T06:01:23;98568.88;;;6.09;78.15
84055;BME280;74141;51.504;7.122;2024-02-23T06:03:49;98567.88;;;5.96;78.38
84055;BME280;74141;51.504;7.122;2024-02-23T06:06:14;98558.09;;;5.84;79.03
84055;BME280;74141;51.504;7.122;2024-02-23T06:08:39;98556.31;;;5.69;79.69
84055;BME280;74141;51.504;7.122;2024-02-23T06:11:05;98546.78;;;5.68;79.13
84055;BME280;74141;51.504;7.122;2024-02-23T06:13:30;98548.81;;;5.63;79.73
84055;BME280;74141;51.504;7.122;2024-02-23T06:15:56;98543.41;;;5.66;78.84
84055;BME280;74141;51.504;7.122;2024-02-23T06:18:21;98544.81;;;5.56;79.18
84055;BME280;74141;51.504;7.122;2024-02-23T06:20:46;98547.69;;;5.52;79.18
84055;BME280;74141;51.504;7.122;2024-02-23T06:23:12;98543.31;;;5.52;78.91
84055;BME280;74141;51.504;7.122;2024-02-23T06:25:38;98541.72;;;5.65;78.73
84055;BME280;74141;51.504;7.122;2024-02-23T06:28:04;98554.28;;;5.74;78.31
84055;BME280;74141;51.504;7.122;2024-02-23T06:30:29;98547.13;;;5.78;78.56
84055;BME280;74141;51.504;7.122;2024-02-23T06:32:54;98546.75;;;5.85;77.68
84055;BME280;74141;51.504;7.122;2024-02-23T06:35:20;98549.66;;;5.95;76.96
84055;BME280;74141;51.504;7.122;2024-02-23T06:37:47;98546.50;;;5.90;77.38
84055;BME280;74141;51.504;7.122;2024-02-23T06:40:12;98553.47;;;5.89;77.20
84055;BME280;74141;51.504;7.122;2024-02-23T06:42:37;98551.78;;;5.88;77.59
84055;BME280;74141;51.504;7.122;2024-02-23T06:45:03;98548.50;;;5.85;77.67
84055;BME280;74141;51.504;7.122;2024-02-23T06:47:28;98544.78;;;5.89;77.28
84055;BME280;74141;51.504;7.122;2024-02-23T06:49:53;98550.69;;;5.92;77.23
84055;BME280;74141;51.504;7.122;2024-02-23T06:52:19;98548.69;;;5.97;76.80
84055;BME280;74141;51.504;7.122;2024-02-23T06:54:44;98545.47;;;5.92;76.98
84055;BME280;74141;51.504;7.122;2024-02-23T06:57:10;98541.81;;;5.95;76.81
84055;BME280;74141;51.504;7.122;2024-02-23T06:59:35;98553.81;;;5.99;76.60
84055;BME280;74141;51.504;7.122;2024-02-23T07:02:02;98549.41;;;5.99;76.82
84055;BME280;74141;51.504;7.122;2024-02-23T07:04:29;98551.13;;;6.00;76.23
84055;BME280;74141;51.504;7.122;2024-02-23T07:06:55;98550.66;;;6.08;75.69
84055;BME280;74141;51.504;7.122;2024-02-23T07:09:20;98560.69;;;6.15;75.19
84055;BME280;74141;51.504;7.122;2024-02-23T07:11:46;98537.59;;;6.08;75.29
84055;BME280;74141;51.504;7.122;2024-02-23T07:14:11;98566.34;;;6.23;75.62
84055;BME280;74141;51.504;7.122;2024-02-23T07:16:39;98566.00;;;6.30;74.73
84055;BME280;74141;51.504;7.122;2024-02-23T07:19:05;98560.09;;;6.71;74.02
84055;BME280;74141;51.504;7.122;2024-02-23T07:21:30;98555.69;;;7.15;71.75
84055;BME280;74141;51.504;7.122;2024-02-23T07:23:56;98563.44;;;7.59;70.26
84055;BME280;74141;51.504;7.122;2024-02-23T07:26:21;98564.03;;;8.04;69.83
84055;BME280;74141;51.504;7.122;2024-02-23T07:28:47;98563.13;;;8.32;67.85
84055;BME280;74141;51.504;7.122;2024-02-23T07:31:13;98555.53;;;8.93;66.07
84055;BME280;74141;51.504;7.122;2024-02-23T07:33:38;98565.94;;;9.32;65.97
84055;BME280;74141;51.504;7.122;2024-02-23T07:36:04;98558.59;;;9.37;64.25
84055;BME280;74141;51.504;7.122;2024-02-23T07:38:29;98562.81;;;9.02;64.01
84055;BME280;74141;51.504;7.122;2024-02-23T07:40:54;98557.53;;;9.15;64.75
84055;BME280;74141;51.504;7.122;2024-02-23T07:43:20;98550.28;;;8.93;64.19
84055;BME280;74141;51.504;7.122;2024-02-23T07:45:45;98550.91;;;8.84;65.32
84055;BME280;74141;51.504;7.122;2024-02-23T07:48:11;98550.28;;;9.31;64.32
84055;BME280;74141;51.504;7.122;2024-02-23T07:50:36;98547.97;;;9.01;64.90
84055;BME280;74141;51.504;7.122;2024-02-23T07:53:01;98553.94;;;8.91;65.33
84055;BME280;74141;51.504;7.122;2024-02-23T07:55:26;98571.03;;;8.71;65.60
84055;BME280;74141;51.504;7.122;2024-02-23T07:57:52;98570.72;;;8.37;66.19
84055;BME280;74141;51.504;7.122;2024-02-23T08:00:17;98570.16;;;7.91;68.48
84055;BME280;74141;51.504;7.122;2024-02-23T08:02:43;98565.97;;;7.74;68.28
84055;BME280;74141;51.504;7.122;2024-02-23T08:05:08;98565.66;;;7.65;69.63
84055;BME280;74141;51.504;7.122;2024-02-23T08:07:35;98568.78;;;7.71;69.54
84055;BME280;74141;51.504;7.122;2024-02-23T08:10:00;98580.00;;;7.73;69.21
84055;BME280;74141;51.504;7.122;2024-02-23T08:12:26;98570.72;;;7.68;69.89
84055;BME280;74141;51.504;7.122;2024-02-23T08:14:51;98576.38;;;7.48;70.81
84055;BME280;74141;51.504;7.122;2024-02-23T08:17:18;98582.34;;;7.64;70.24
84055;BME280;74141;51.504;7.122;2024-02-23T08:19:43;98571.00;;;7.63;69.89
84055;BME280;74141;51.504;7.122;2024-02-23T08:22:09;98558.38;;;7.70;69.00
84055;BME280;74141;51.504;7.122;2024-02-23T08:24:34;98587.59;;;7.78;69.43
84055;BME280;74141;51.504;7.122;2024-02-23T08:26:59;98599.44;;;7.97;69.18
84055;BME280;74141;51.504;7.122;2024-02-23T08:29:26;98598.66;;;8.09;68.88
84055;BME280;74141;51.504;7.122;2024-02-23T08:31:51;98596.31;;;8.05;68.95
84055;BME280;74141;51.504;7.122;2024-02-23T08:34:17;98596.94;;;7.82;69.94
84055;BME280;74141;51.504;7.122;2024-02-23T08:36:43;98594.47;;;7.93;69.13
84055;BME280;74141;51.504;7.122;2024-02-23T08:39:08;98595.19;;;8.23;68.32
84055;BME280;74141;51.504;7.122;2024-02-23T08:41:34;98585.66;;;8.08;69.43
84055;BME280;74141;51.504;7.122;2024-02-23T08:43:59;98590.75;;;8.64;66.94
84055;BME280;74141;51.504;7.122;2024-02-23T08:46:24;98598.13;;;8.72;66.31
84055;BME280;74141;51.504;7.122;2024-02-23T08:48:49;98598.00;;;8.73;67.26
84055;BME280;74141;51.504;7.122;2024-02-23T08:51:15;98598.88;;;8.47;68.02
84055;BME280;74141;51.504;7.122;2024-02-23T08:53:40;98598.38;;;8.81;67.18
84055;BME280;74141;51.504;7.122;2024-02-23T08:56:07;98602.09;;;8.65;67.69
84055;BME280;74141;51.504;7.122;2024-02-23T08:58:33;98594.06;;;8.54;67.95
84055;BME280;74141;51.504;7.122;2024-02-23T09:00:58;98600.47;;;8.50;66.90
84055;BME280;74141;51.504;7.122;2024-02-23T09:03:23;98598.72;;;8.36;68.18
84055;BME280;74141;51.504;7.122;2024-02-23T09:05:49;98591.06;;;8.19;68.01
84055;BME280;74141;51.504;7.122;2024-02-23T09:08:14;98597.22;;;8.18;68.16
84055;BME280;74141;51.504;7.122;2024-02-23T09:10:39;98593.88;;;8.30;68.48
84055;BME280;74141;51.504;7.122;2024-02-23T09:13:05;98583.09;;;8.20;67.97
84055;BME280;74141;51.504;7.122;2024-02-23T09:15:31;98588.53;;;8.17;67.52
84055;BME280;74141;51.504;7.122;2024-02-23T09:17:56;98589.88;;;8.10;68.37
84055;BME280;74141;51.504;7.122;2024-02-23T09:20:21;98593.88;;;8.16;68.05
84055;BME280;74141;51.504;7.122;2024-02-23T09:22:47;98593.69;;;8.19;67.95
84055;BME280;74141;51.504;7.122;2024-02-23T09:25:12;98595.38;;;8.34;67.70
84055;BME280;74141;51.504;7.122;2024-02-23T09:27:38;98600.75;;;8.45;67.26
84055;BME280;74141;51.504;7.122;2024-02-23T09:30:12;98591.53;;;8.52;67.98
84055;BME280;74141;51.504;7.122;2024-02-23T09:32:37;98598.88;;;8.47;66.93
84055;BME280;74141;51.504;7.122;2024-02-23T09:35:03;98602.47;;;8.59;66.53
84055;BME280;74141;51.504;7.122;2024-02-23T09:37:28;98605.41;;;8.54;66.07
84055;BME280;74141;51.504;7.122;2024-02-23T09:39:54;98595.22;;;8.50;65.74
84055;BME280;74141;51.504;7.122;2024-02-23T09:42:22;98602.75;;;8.68;65.93
84055;BME280;74141;51.504;7.122;2024-02-23T09:44:57;98603.63;;;8.81;65.95
84055;BME280;74141;51.504;7.122;2024-02-23T09:47:24;98609.25;;;8.75;65.78
84055;BME280;74141;51.504;7.122;2024-02-23T09:49:51;98609.16;;;8.77;64.94
84055;BME280;74141;51.504;7.122;2024-02-23T09:52:18;98601.88;;;8.68;65.28
84055;BME280;74141;51.504;7.122;2024-02-23T09:54:44;98606.03;;;8.84;64.75
84055;BME280;74141;51.504;7.122;2024-02-23T09:57:10;98596.00;;;9.16;64.98
84055;BME280;74141;51.504;7.122;2024-02-23T09:59:35;98604.84;;;9.27;62.76
84055;BME280;74141;51.504;7.122;2024-02-23T10:02:07;98601.06;;;9.31;63.38
84055;BME280;74141;51.504;7.122;2024-02-23T10:04:34;98601.06;;;9.31;63.07
84055;BME280;74141;51.504;7.122;2024-02-23T10:06:59;98596.31;;;9.36;62.50
84055;BME280;74141;51.504;7.122;2024-02-23T10:09:24;98602.72;;;9.32;62.84
84055;BME280;74141;51.504;7.122;2024-02-23T10:11:53;98609.34;;;9.25;62.98
84055;BME280;74141;51.504;7.122;2024-02-23T10:14:19;98604.09;;;9.25;63.26
84055;BME280;74141;51.504;7.122;2024-02-23T10:16:44;98612.53;;;9.30;61.93
84055;BME280;74141;51.504;7.122;2024-02-23T10:19:09;98605.16;;;9.35;62.89
84055;BME280;74141;51.504;7.122;2024-02-23T10:21:35;98610.00;;;9.41;62.89
84055;BME280;74141;51.504;7.122;2024-02-23T10:24:00;98602.22;;;9.40;61.32
84055;BME280;74141;51.504;7.122;2024-02-23T10:26:27;98610.63;;;9.45;62.38
84055;BME280;74141;51.504;7.122;2024-02-23T10:28:52;98610.44;;;9.48;62.26
84055;BME280;74141;51.504;7.122;2024-02-23T10:31:17;98601.38;;;9.52;61.96
84055;BME280;74141;51.504;7.122;2024-02-23T10:33:44;98608.13;;;9.43;62.26
84055;BME280;74141;51.504;7.122;2024-02-23T10:36:11;98615.06;;;9.57;62.21
84055;BME280;74141;51.504;7.122;2024-02-23T10:38:38;98606.53;;;9.53;61.95
84055;BME280;74141;51.504;7.122;2024-02-23T10:41:05;98615.88;;;9.70;61.97
84055;BME280;74141;51.504;7.122;2024-02-23T10:43:44;98615.47;;;9.63;61.60
84055;BME280;74141;51.504;7.122;2024-02-23T10:46:15;98613.66;;;9.76;60.33
84055;BME280;74141;51.504;7.122;2024-02-23T10:48:44;98618.16;;;9.87;60.57
84055;BME280;74141;51.504;7.122;2024-02-23T10:51:10;98630.94;;;9.80;61.98
84055;BME280;74141;51.504;7.122;2024-02-23T10:53:39;98619.88;;;9.75;61.00
84055;BME280;74141;51.504;7.122;2024-02-23T10:56:05;98627.34;;;9.81;61.40
84055;BME280;74141;51.504;7.122;2024-02-23T10:58:31;98628.72;;;9.74;60.92
84055;BME280;74141;51.504;7.122;2024-02-23T11:01:01;98616.50;;;9.73;62.22
84055;BME280;74141;51.504;7.122;2024-02-23T11:03:29;98619.44;;;9.81;60.61
84055;BME280;74141;51.504;7.122;2024-02-23T11:05:56;98625.94;;;10.01;60.84
84055;BME280;74141;51.504;7.122;2024-02-23T11:08:21;98619.84;;;10.00;60.78
84055;BME280;74141;51.504;7.122;2024-02-23T11:10:50;98623.44;;;9.99;59.71
84055;BME280;74141;51.504;7.122;2024-02-23T11:13:18;98603.78;;;9.80;59.47
84055;BME280;74141;51.504;7.122;2024-02-23T11:15:44;98610.50;;;9.96;60.43
84055;BME280;74141;51.504;7.122;2024-02-23T11:18:41;98615.84;;;10.07;60.71
84055;BME280;74141;51.504;7.122;2024-02-23T11:21:10;98602.19;;;9.90;60.16
84055;BME280;74141;51.504;7.122;2024-02-23T11:23:47;98615.66;;;9.85;60.21
84055;BME280;74141;51.504;7.122;2024-02-23T11:26:15;98621.88;;;9.84;59.76
84055;BME280;74141;51.504;7.122;2024-02-23T11:28:58;98616.72;;;9.70;60.60
84055;BME280;74141;51.504;7.122;2024-02-23T11:31:29;98612.72;;;9.65;60.46
84055;BME280;74141;51.504;7.122;2024-02-23T11:33:56;98605.78;;;9.64;60.50
84055;BME280;74141;51.504;7.122;2024-02-23T11:36:32;98622.81;;;9.71;61.29
84055;BME280;74141;51.504;7.122;2024-02-23T11:38:57;98609.16;;;9.66;60.02
84055;BME280;74141;51.504;7.122;2024-02-23T11:41:24;98610.72;;;9.68;61.12
84055;BME280;74141;51.504;7.122;2024-02-23T11:43:53;98612.75;;;9.52;61.63
84055;BME280;74141;51.504;7.122;2024-02-23T11:46:19;98611.56;;;9.56;60.21
84055;BME280;74141;51.504;7.122;2024-02-23T11:48:45;98615.25;;;9.66;60.54
84055;BME280;74141;51.504;7.122;2024-02-23T11:51:13;98616.81;;;9.69;61.04
84055;BME280;74141;51.504;7.122;2024-02-23T11:53:39;98605.59;;;9.67;60.29
84055;BME280;74141;51.504;7.122;2024-02-23T11:56:05;98607.06;;;9.46;60.51
84055;BME280;74141;51.504;7.122;2024-02-23T11:58:32;98607.69;;;9.37;61.20
84055;BME280;74141;51.504;7.122;2024-02-23T12:00:57;98614.50;;;9.39;61.50
84055;BME280;74141;51.504;7.122;2024-02-23T12:03:23;98607.69;;;9.37;61.53
84055;BME280;74141;51.504;7.122;2024-02-23T12:05:50;98602.84;;;9.43;60.63
84055;BME280;74141;51.504;7.122;2024-02-23T12:08:16;98615.28;;;9.54;61.33
84055;BME280;74141;51.504;7.122;2024-02-23T12:10:42;98607.91;;;9.46;60.93
84055;BME280;74141;51.504;7.122;2024-02-23T12:13:08;98605.56;;;9.29;61.91
84055;BME280;74141;51.504;7.122;2024-02-23T12:15:33;98613.25;;;9.32;62.33
84055;BME280;74141;51.504;7.122;2024-02-23T12:17:58;98606.00;;;9.36;62.16
84055;BME280;74141;51.504;7.122;2024-02-23T12:20:25;98614.50;;;9.39;62.74
84055;BME280;74141;51.504;7.122;2024-02-23T12:22:54;98603.69;;;9.31;61.63
84055;BME280;74141;51.504;7.122;2024-02-23T12:25:19;98616.09;;;9.29;61.56
84055;BME280;74141;51.504;7.122;2024-02-23T12:27:45;98619.34;;;9.33;63.28
84055;BME280;74141;51.504;7.122;2024-02-23T12:30:16;98623.75;;;9.32;63.55
84055;BME280;74141;51.504;7.122;2024-02-23T12:32:42;98636.47;;;9.38;63.20
84055;BME280;74141;51.504;7.122;2024-02-23T12:35:10;98632.19;;;9.37;62.67
84055;BME280;74141;51.504;7.122;2024-02-23T12:37:37;98629.34;;;9.40;63.40
84055;BME280;74141;51.504;7.122;2024-02-23T12:40:02;98642.38;;;9.42;62.92
84055;BME280;74141;51.504;7.122;2024-02-23T12:42:28;98617.78;;;9.43;64.52
84055;BME280;74141;51.504;7.122;2024-02-23T12:44:53;98641.53;;;9.41;65.52
84055;BME280;74141;51.504;7.122;2024-02-23T12:47:18;98634.91;;;9.48;65.63
84055;BME280;74141;51.504;7.122;2024-02-23T12:49:43;98631.47;;;9.48;64.43
84055;BME280;74141;51.504;7.122;2024-02-23T12:52:09;98639.00;;;9.40;63.85
84055;BME280;74141;51.504;7.122;2024-02-23T12:54:34;98635.31;;;9.42;64.03
84055;BME280;74141;51.504;7.122;2024-02-23T12:56:59;98633.97;;;9.49;63.54
84055;BME280;74141;51.504;7.122;2024-02-23T12:59:24;98635.00;;;9.47;64.19
84055;BME280;74141;51.504;7.122;2024-02-23T13:01:50;98629.34;;;9.40;63.49
84055;BME280;74141;51.504;7.122;2024-02-23T13:04:15;98631.78;;;9.43;65.05